Time;durP1;ratioP1;P1;durP2;ratioP2;P2;SDS_P1;SDS_P2;PMS_P1;PMS_P2;Temp;Humidity;BMP_temperature;BMP_pressure;BME280_temperature;BME280_humidity;BME280_pressure;Samples;Min_cycle;Max_cycle;Signal;HPM_P1;HPM_P2
2022/01/08 00:03:03;;;;;;;18.02;8.55;;;0.30;99.90;;;;;;2621753;46;20871;31
2022/01/08 00:05:41;;;;;;;15.90;8.70;;;0.30;99.90;;;;;;2603574;54;20030;31
2022/01/08 00:08:15;;;;;;;16.77;7.75;;;0.30;99.90;;;;;;2603208;54;20836;31
2022/01/08 00:10:52;;;;;;;14.60;7.65;;;0.30;99.90;;;;;;2603273;54;20030;31
2022/01/08 00:13:48;;;;;;;16.00;8.27;;;0.20;99.90;;;;;;2603080;54;20022;31
2022/01/08 00:16:23;;;;;;;15.90;8.25;;;0.30;99.90;;;;;;2603340;54;20053;31
2022/01/08 00:19:02;;;;;;;16.53;7.67;;;0.30;99.90;;;;;;2603172;54;20046;31
2022/01/08 00:21:47;;;;;;;15.55;7.97;;;0.30;99.90;;;;;;2603149;54;20046;31
2022/01/08 00:27:35;;;;;;;13.13;7.40;;;0.30;99.90;;;;;;2621866;46;20941;31
2022/01/08 00:33:34;;;;;;;13.95;7.50;;;0.30;99.90;;;;;;2602926;54;20022;31
2022/01/08 00:39:08;;;;;;;14.27;6.97;;;0.30;99.90;;;;;;2603043;54;20023;31
2022/01/08 00:41:43;;;;;;;;;;;0.30;99.90;;;;;;2603666;54;20872;31
2022/01/08 00:44:29;;;;;;;12.27;7.03;;;0.30;99.90;;;;;;2621944;46;19994;31
2022/01/08 00:47:11;;;;;;;13.00;7.43;;;0.30;99.90;;;;;;2603452;54;20880;31
2022/01/08 00:49:49;;;;;;;13.60;7.75;;;0.30;99.90;;;;;;2603231;54;20243;31
2022/01/08 00:52:29;;;;;;;12.70;6.60;;;0.30;99.90;;;;;;2603351;54;20892;31
2022/01/08 00:55:07;;;;;;;11.32;6.72;;;0.40;99.90;;;;;;2603230;54;20864;31
2022/01/08 00:57:47;;;;;;;13.33;6.20;;;0.40;99.90;;;;;;2612320;46;20136;31
2022/01/08 01:00:29;;;;;;;19.33;7.40;;;0.30;99.90;;;;;;2603040;54;20060;31
2022/01/08 01:03:14;;;;;;;16.50;7.05;;;0.30;99.90;;;;;;2603152;54;20879;31
2022/01/08 01:06:09;;;;;;;15.43;7.13;;;0.30;99.90;;;;;;2621203;46;20038;31
2022/01/08 01:08:57;;;;;;;;;;;;;;;;;;;;;
2022/01/08 01:11:41;;;;;;;11.13;6.72;;;0.30;99.90;;;;;;2603041;54;20281;31
2022/01/08 01:14:18;;;;;;;;;;;0.30;99.90;;;;;;2621704;47;20027;31
2022/01/08 01:17:02;;;;;;;13.82;7.68;;;0.30;99.90;;;;;;2602840;54;20832;31
2022/01/08 01:19:43;;;;;;;10.00;6.32;;;0.30;99.90;;;;;;2602293;54;20108;31
2022/01/08 01:25:22;;;;;;;14.13;6.50;;;0.30;99.90;;;;;;2621717;47;20824;31
2022/01/08 01:28:26;;;;;;;15.13;7.40;;;0.30;99.90;;;;;;2621128;47;20863;31
2022/01/08 01:49:41;;;;;;;9.40;6.28;;;0.30;99.90;;;;;;2602924;54;20053;31
2022/01/08 01:55:38;;;;;;;13.50;7.70;;;0.30;99.90;;;;;;2621183;47;20818;31
2022/01/08 01:58:18;;;;;;;13.80;6.90;;;0.30;99.90;;;;;;2602867;54;20068;31
2022/01/08 02:00:55;;;;;;;14.15;7.07;;;0.30;99.90;;;;;;2603838;54;20964;31
2022/01/08 02:06:29;;;;;;;17.30;7.30;;;0.30;99.90;;;;;;2622223;46;20036;31
2022/01/08 02:09:09;;;;;;;13.82;7.20;;;0.30;99.90;;;;;;2603601;54;20120;31
2022/01/08 02:12:02;;;;;;;13.95;7.38;;;0.30;99.90;;;;;;2603556;54;20879;31
2022/01/08 02:17:36;;;;;;;12.73;7.28;;;0.20;99.90;;;;;;2603576;54;20265;31
2022/01/08 02:20:23;;;;;;;14.68;7.20;;;0.20;99.90;;;;;;2622209;46;20022;31
2022/01/08 02:23:14;;;;;;;10.90;6.90;;;0.20;99.90;;;;;;2622502;46;20760;31
2022/01/08 02:26:01;;;;;;;13.60;8.18;;;0.30;99.90;;;;;;2622171;46;20819;31
2022/01/08 02:28:41;;;;;;;11.45;7.35;;;0.20;99.90;;;;;;2603709;54;20034;31
2022/01/08 02:31:15;;;;;;;13.43;8.40;;;0.30;99.90;;;;;;2603447;54;20854;31
2022/01/08 02:36:49;;;;;;;16.92;8.05;;;0.30;99.90;;;;;;2603578;54;20832;31
2022/01/08 02:39:24;;;;;;;33.20;16.20;;;0.40;99.90;;;;;;2622094;46;20028;31
2022/01/08 02:42:01;;;;;;;127.03;57.92;;;0.30;99.90;;;;;;2603717;54;20135;31
2022/01/08 02:44:41;;;;;;;92.43;34.08;;;0.40;99.90;;;;;;2622005;46;20869;31
2022/01/08 02:47:16;;;;;;;;;;;0.40;99.90;;;;;;2603681;54;20026;31
2022/01/08 02:49:53;;;;;;;24.80;10.43;;;0.40;99.90;;;;;;2603436;54;19935;31
2022/01/08 02:52:49;;;;;;;16.77;9.02;;;0.40;99.90;;;;;;2603579;54;20916;31
2022/01/08 02:58:03;;;;;;;41.85;16.20;;;0.40;99.90;;;;;;2622028;46;20322;31
2022/01/08 03:06:19;;;;;;;35.28;13.95;;;0.40;99.90;;;;;;2603405;54;20854;31
2022/01/08 03:09:04;;;;;;;17.10;9.00;;;0.40;99.90;;;;;;2603549;54;20023;31
2022/01/08 03:11:43;;;;;;;16.23;8.25;;;0.40;99.90;;;;;;2603148;54;20074;31
2022/01/08 03:14:17;;;;;;;14.93;8.40;;;0.40;99.90;;;;;;2603691;54;20046;31
2022/01/08 03:16:52;;;;;;;15.63;9.03;;;0.40;99.90;;;;;;2603474;54;20057;31
2022/01/08 03:19:30;;;;;;;13.00;8.20;;;0.40;99.90;;;;;;2621776;46;20030;31
2022/01/08 03:22:13;;;;;;;13.38;8.30;;;0.40;99.90;;;;;;2622005;46;20859;31
2022/01/08 03:24:50;;;;;;;17.15;8.40;;;0.40;99.90;;;;;;2603246;54;20127;31
2022/01/08 03:27:31;;;;;;;26.48;11.02;;;0.40;99.90;;;;;;2603313;54;20061;31
2022/01/08 03:30:09;;;;;;;17.80;9.95;;;0.40;99.90;;;;;;2764930;31;20027;31
2022/01/08 03:32:44;;;;;;;17.77;9.07;;;0.40;99.90;;;;;;2603069;54;20023;31
2022/01/08 03:35:19;;;;;;;17.83;9.20;;;0.40;99.90;;;;;;2603292;54;20026;31
2022/01/08 03:38:01;;;;;;;14.63;8.07;;;0.50;99.90;;;;;;2603477;54;20037;31
2022/01/08 03:43:32;;;;;;;23.85;10.10;;;0.50;99.90;;;;;;2603319;54;20049;31
2022/01/08 03:46:07;;;;;;;16.60;9.18;;;0.50;99.90;;;;;;2603320;54;20760;31
2022/01/08 03:49:11;;;;;;;16.17;9.30;;;0.50;99.90;;;;;;2603492;54;20089;31
2022/01/08 03:51:51;;;;;;;14.77;8.57;;;0.50;99.90;;;;;;2603179;54;20030;31
2022/01/08 03:54:34;;;;;;;23.60;10.13;;;0.50;99.90;;;;;;2603390;54;20833;31
2022/01/08 03:57:10;;;;;;;21.13;10.05;;;0.50;99.90;;;;;;2603219;54;20860;31
2022/01/08 03:59:49;;;;;;;20.42;10.27;;;0.50;99.90;;;;;;2602863;54;19941;31
2022/01/08 04:02:30;;;;;;;;;;;0.50;99.90;;;;;;2603811;54;20027;31
2022/01/08 04:07:58;;;;;;;;;;;0.50;99.90;;;;;;2603467;54;20817;31
2022/01/08 04:11:00;;;;;;;14.75;7.65;;;0.50;99.90;;;;;;2621827;46;19993;31
2022/01/08 04:13:40;;;;;;;11.68;7.80;;;0.50;99.90;;;;;;2603472;54;20109;31
2022/01/08 04:16:53;;;;;;;15.10;7.95;;;0.50;99.90;;;;;;2603318;54;20045;31
2022/01/08 04:19:38;;;;;;;16.95;8.25;;;0.50;99.90;;;;;;2603195;54;20034;31
2022/01/08 04:22:23;;;;;;;16.58;8.60;;;0.50;99.90;;;;;;2603341;54;20026;31
2022/01/08 04:28:01;;;;;;;11.50;7.25;;;0.50;99.90;;;;;;2622082;46;20052;31
2022/01/08 04:30:45;;;;;;;13.60;8.15;;;0.50;99.90;;;;;;2602958;54;20034;31
2022/01/08 04:33:41;;;;;;;13.32;8.27;;;0.50;99.90;;;;;;2603257;54;20800;31
2022/01/08 04:36:24;;;;;;;14.95;7.47;;;0.50;99.90;;;;;;2603389;54;20030;31
2022/01/08 04:38:58;;;;;;;13.45;7.95;;;0.60;99.90;;;;;;2603175;54;20027;31
2022/01/08 04:41:44;;;;;;;;;;;;;;;;;;;;;
2022/01/08 04:44:33;;;;;;;10.35;7.20;;;0.60;99.90;;;;;;2621780;46;20029;31
2022/01/08 04:50:16;;;;;;;12.43;7.40;;;0.60;99.90;;;;;;2603012;54;20895;31
2022/01/08 04:53:01;;;;;;;13.40;8.80;;;0.60;99.90;;;;;;2603023;54;20884;31
2022/01/08 04:55:40;;;;;;;15.10;8.30;;;0.70;99.90;;;;;;2603246;54;20164;31
2022/01/08 04:58:17;;;;;;;17.00;9.27;;;0.70;99.90;;;;;;2603394;54;20872;31
2022/01/08 05:00:55;;;;;;;14.27;8.13;;;0.70;99.90;;;;;;2603547;47;20053;31
2022/01/08 05:03:30;;;;;;;14.10;8.85;;;0.70;99.90;;;;;;2603123;54;20103;31
2022/01/08 05:06:04;;;;;;;11.90;7.80;;;0.60;99.90;;;;;;2621453;46;20042;31
2022/01/08 05:08:55;;;;;;;13.57;8.07;;;0.70;99.90;;;;;;2603214;54;20842;31
2022/01/08 05:11:46;;;;;;;15.50;8.30;;;0.60;99.90;;;;;;2603043;54;20037;31
2022/01/08 05:14:26;;;;;;;14.45;9.15;;;0.70;99.90;;;;;;2603450;54;20038;31
2022/01/08 05:17:17;;;;;;;14.05;9.00;;;0.70;99.90;;;;;;2603094;54;20049;31
2022/01/08 05:19:53;;;;;;;14.10;9.85;;;0.70;99.90;;;;;;2602932;54;20039;31
2022/01/08 05:22:31;;;;;;;14.65;9.35;;;0.70;99.90;;;;;;2621772;47;20034;31
2022/01/08 05:25:31;;;;;;;16.25;9.70;;;0.70;99.90;;;;;;2606409;47;20027;31
2022/01/08 05:28:08;;;;;;;14.43;8.60;;;0.70;99.90;;;;;;2621280;47;20046;31
2022/01/08 05:30:44;;;;;;;16.23;10.33;;;0.70;99.90;;;;;;2603046;54;20060;31
2022/01/08 05:33:22;;;;;;;15.63;9.65;;;0.60;99.90;;;;;;2607078;47;21265;31
2022/01/08 05:35:57;;;;;;;23.85;9.70;;;0.60;99.90;;;;;;2603628;54;20034;31
2022/01/08 05:38:41;;;;;;;16.77;10.05;;;0.60;99.90;;;;;;2603731;54;20026;31
2022/01/08 05:41:33;;;;;;;16.17;9.07;;;0.60;99.90;;;;;;2603605;54;20031;31
2022/01/08 05:44:27;;;;;;;17.25;9.60;;;0.60;99.90;;;;;;2603854;54;20092;31
2022/01/08 05:47:03;;;;;;;18.23;9.98;;;0.60;99.90;;;;;;2603935;54;20034;31
2022/01/08 05:49:38;;;;;;;14.90;9.30;;;0.60;99.90;;;;;;2602951;54;20042;31
2022/01/08 05:55:25;;;;;;;15.65;9.70;;;0.60;99.90;;;;;;2603788;54;20073;31
2022/01/08 05:58:10;;;;;;;17.43;9.93;;;0.70;99.90;;;;;;2603585;54;20030;31
2022/01/08 06:00:58;;;;;;;18.00;9.40;;;0.60;99.90;;;;;;2603726;54;20897;31
2022/01/08 06:03:39;;;;;;;18.85;9.50;;;0.60;99.90;;;;;;2603803;54;20035;31
2022/01/08 06:06:28;;;;;;;15.55;9.07;;;0.70;99.90;;;;;;2603644;54;20035;31
2022/01/08 06:09:07;;;;;;;17.73;9.57;;;0.70;99.90;;;;;;2621696;46;20140;31
2022/01/08 06:11:55;;;;;;;16.77;9.13;;;0.70;99.90;;;;;;2608054;46;20026;31
2022/01/08 06:14:38;;;;;;;19.55;10.80;;;0.70;99.90;;;;;;2621750;46;20019;31
2022/01/08 06:20:17;;;;;;;41.83;18.73;;;0.70;99.90;;;;;;2603862;54;20022;31
2022/01/08 06:22:54;;;;;;;35.53;16.45;;;0.70;99.90;;;;;;2603642;54;20247;31
2022/01/08 06:25:32;;;;;;;25.93;13.30;;;0.70;99.90;;;;;;2622372;46;20913;31
2022/01/08 06:28:17;;;;;;;23.13;12.50;;;0.80;99.90;;;;;;2603620;54;20027;31
2022/01/08 06:35:10;;;;;;;12.63;7.78;;;0.80;99.90;;;;;;2603692;54;20033;31
2022/01/08 06:38:06;;;;;;;11.05;7.68;;;0.90;99.90;;;;;;2603419;54;20140;31
2022/01/08 06:40:54;;;;;;;15.82;8.07;;;0.90;99.90;;;;;;2606932;46;20026;31
2022/01/08 06:43:31;;;;;;;13.40;7.82;;;0.90;99.90;;;;;;2603417;54;20026;31
2022/01/08 06:46:04;;;;;;;15.80;8.15;;;0.90;99.90;;;;;;2603610;54;20038;31
2022/01/08 06:48:56;;;;;;;11.83;8.03;;;0.90;99.90;;;;;;2603861;54;20879;31
2022/01/08 06:51:39;;;;;;;11.27;7.00;;;0.90;99.90;;;;;;2603712;54;20309;31
2022/01/08 06:54:20;;;;;;;12.55;7.85;;;0.90;99.90;;;;;;2603575;54;20033;31
2022/01/08 06:57:08;;;;;;;19.23;11.07;;;0.90;99.90;;;;;;2603517;54;20068;31
2022/01/08 06:59:47;;;;;;;;;;;0.90;99.90;;;;;;2603730;54;20026;31
2022/01/08 07:05:46;;;;;;;14.68;8.68;;;0.90;99.90;;;;;;2603253;54;20875;31
2022/01/08 07:08:37;;;;;;;15.35;8.40;;;1.00;99.90;;;;;;2603481;54;20883;31
2022/01/08 07:14:01;;;;;;;21.75;9.18;;;1.70;99.90;;;;;;2603312;54;20065;31
2022/01/08 07:16:41;;;;;;;25.17;11.52;;;2.00;99.90;;;;;;2603717;54;20875;31
2022/01/08 07:19:26;;;;;;;105.20;20.70;;;2.00;99.90;;;;;;2603322;54;20026;31
2022/01/08 07:22:02;;;;;;;42.75;12.00;;;2.00;99.90;;;;;;2603591;54;20027;31
2022/01/08 07:24:37;;;;;;;16.77;9.27;;;2.10;99.90;;;;;;2602601;54;20035;31
2022/01/08 07:27:15;;;;;;;15.25;8.82;;;2.10;99.90;;;;;;2603624;54;20053;31
2022/01/08 07:30:09;;;;;;;19.48;10.25;;;2.10;99.90;;;;;;2603409;54;20027;31
2022/01/08 07:33:01;;;;;;;14.13;9.18;;;2.00;99.90;;;;;;2702310;39;21007;31
2022/01/08 07:35:45;;;;;;;15.48;9.73;;;1.90;99.90;;;;;;2603395;54;20036;31
2022/01/08 07:38:26;;;;;;;14.40;8.95;;;1.80;99.90;;;;;;2603412;54;20108;31
2022/01/08 07:41:29;;;;;;;14.65;9.75;;;1.80;99.90;;;;;;2621764;46;20037;31
2022/01/08 07:44:12;;;;;;;17.05;9.85;;;1.70;99.90;;;;;;2603418;54;20766;31
2022/01/08 07:47:06;;;;;;;15.10;9.20;;;1.60;99.90;;;;;;2621241;46;20026;31
2022/01/08 07:49:56;;;;;;;16.60;9.93;;;1.50;99.90;;;;;;2603089;54;20080;31
2022/01/08 07:52:33;;;;;;;17.97;11.17;;;1.50;99.90;;;;;;2603281;54;20243;31
2022/01/08 07:55:15;;;;;;;17.90;11.30;;;1.50;99.90;;;;;;2603181;54;20027;31
2022/01/08 07:57:55;;;;;;;;;;;1.50;99.90;;;;;;2603263;54;20959;31
2022/01/08 08:00:32;;;;;;;16.50;10.68;;;1.50;99.90;;;;;;2603145;54;19950;31
2022/01/08 08:03:12;;;;;;;16.73;10.83;;;1.40;99.90;;;;;;2603177;54;20034;31
2022/01/08 08:05:51;;;;;;;15.15;10.75;;;1.50;99.90;;;;;;2603570;54;20022;31
2022/01/08 08:08:37;;;;;;;15.45;10.73;;;1.40;99.90;;;;;;2602813;54;20943;31
2022/01/08 08:11:27;;;;;;;15.98;10.90;;;1.40;99.90;;;;;;2603529;54;20026;31
2022/01/08 08:14:12;;;;;;;14.02;9.25;;;1.40;99.90;;;;;;2603311;54;20117;31
2022/01/08 08:16:47;;;;;;;19.35;11.23;;;1.40;99.90;;;;;;2603220;54;20117;31
2022/01/08 08:19:27;;;;;;;17.15;11.45;;;1.40;99.90;;;;;;2603222;54;20105;31
2022/01/08 08:22:04;;;;;;;19.77;11.55;;;1.40;99.90;;;;;;2603317;54;20104;31
2022/01/08 08:24:50;;;;;;;18.42;10.75;;;1.40;99.90;;;;;;2621878;46;20023;31
2022/01/08 08:27:43;;;;;;;16.00;11.40;;;1.50;99.90;;;;;;2603202;54;20046;31
2022/01/08 08:30:33;;;;;;;19.90;11.73;;;1.50;99.90;;;;;;2603253;54;20988;31
2022/01/08 08:33:12;;;;;;;18.05;11.32;;;1.50;99.90;;;;;;2621437;46;21100;31
2022/01/08 08:35:48;;;;;;;20.83;12.50;;;1.50;99.90;;;;;;2622027;46;20034;31
2022/01/08 08:38:41;;;;;;;22.25;13.90;;;1.50;99.90;;;;;;2603168;54;20052;31
2022/01/08 08:41:28;;;;;;;25.53;13.57;;;1.50;99.90;;;;;;2603320;54;20022;31
2022/01/08 08:44:02;;;;;;;17.48;13.02;;;1.50;99.90;;;;;;2621593;46;21114;31
2022/01/08 08:46:38;;;;;;;19.67;12.77;;;1.60;99.90;;;;;;2603133;54;20870;31
2022/01/08 08:49:18;;;;;;;21.42;12.43;;;1.60;99.90;;;;;;2603162;54;20026;31
2022/01/08 08:51:54;;;;;;;19.20;11.75;;;1.60;99.90;;;;;;2621540;46;20032;31
2022/01/08 08:54:33;;;;;;;17.60;11.85;;;1.60;99.90;;;;;;2621416;46;20026;31
2022/01/08 08:57:11;;;;;;;22.20;12.65;;;1.70;99.90;;;;;;2621939;46;20030;31
2022/01/08 08:59:45;;;;;;;18.90;11.77;;;1.70;99.90;;;;;;2603102;54;20037;31
2022/01/08 09:02:20;;;;;;;20.27;12.77;;;1.70;99.90;;;;;;2603048;54;20107;31
2022/01/08 09:04:55;;;;;;;19.73;12.30;;;1.70;99.90;;;;;;2603210;54;20032;31
2022/01/08 09:07:30;;;;;;;20.30;12.20;;;1.70;99.90;;;;;;2621282;46;20031;31
2022/01/08 09:10:05;;;;;;;18.42;11.60;;;1.70;99.90;;;;;;2603055;54;20027;31
2022/01/08 09:12:51;;;;;;;19.25;12.15;;;1.80;99.90;;;;;;2603080;54;20831;31
2022/01/08 09:15:29;;;;;;;23.33;13.45;;;1.80;99.90;;;;;;2603283;54;20026;31
2022/01/08 09:18:11;;;;;;;35.47;19.87;;;1.90;99.90;;;;;;2621437;47;20029;31
2022/01/08 09:20:46;;;;;;;27.90;16.40;;;1.90;99.90;;;;;;2603302;54;20800;31
2022/01/08 09:23:23;;;;;;;27.52;15.35;;;1.90;99.90;;;;;;2602793;54;20027;31
2022/01/08 09:26:11;;;;;;;21.08;12.35;;;1.90;99.90;;;;;;2603118;54;20843;31
2022/01/08 09:28:56;;;;;;;22.92;14.50;;;1.90;99.90;;;;;;2602721;54;20844;31
2022/01/08 09:31:31;;;;;;;19.90;13.20;;;2.00;99.90;;;;;;2603160;54;20029;31
2022/01/08 09:34:21;;;;;;;24.50;14.07;;;2.00;99.90;;;;;;2602972;54;20023;31
2022/01/08 09:36:58;;;;;;;19.13;12.10;;;2.10;99.90;;;;;;2603248;54;20147;31
2022/01/08 09:39:39;;;;;;;19.55;11.77;;;2.10;99.90;;;;;;2602900;54;20046;31
2022/01/08 09:42:14;;;;;;;21.90;10.75;;;2.10;99.90;;;;;;2602804;54;20054;31
2022/01/08 09:44:51;;;;;;;18.02;12.30;;;2.20;99.90;;;;;;2602900;54;20026;31
2022/01/08 09:47:34;;;;;;;17.90;11.30;;;2.20;99.90;;;;;;2602721;54;20037;31
2022/01/08 09:50:10;;;;;;;;;;;2.20;99.90;;;;;;2621857;47;20038;31
2022/01/08 09:52:48;;;;;;;23.70;12.50;;;2.20;99.90;;;;;;2602993;54;20761;31
2022/01/08 09:55:25;;;;;;;20.50;11.68;;;2.30;99.90;;;;;;2602877;54;20353;31
2022/01/08 09:57:59;;;;;;;24.05;13.15;;;2.30;99.90;;;;;;2602865;54;20026;31
2022/01/08 10:00:37;;;;;;;22.07;11.27;;;2.30;99.90;;;;;;2602924;54;20037;31
2022/01/08 10:03:19;;;;;;;19.48;11.45;;;2.30;99.90;;;;;;2621190;47;20023;31
2022/01/08 10:05:58;;;;;;;18.13;11.73;;;2.40;99.90;;;;;;2602741;54;20036;31
2022/01/08 10:08:52;;;;;;;17.27;10.45;;;2.40;99.90;;;;;;2602978;54;20049;31
2022/01/08 10:11:30;;;;;;;20.75;10.85;;;2.40;99.90;;;;;;2602098;54;20071;31
2022/01/08 10:14:15;;;;;;;20.73;12.00;;;2.50;99.90;;;;;;2602809;54;20795;31
2022/01/08 10:19:45;;;;;;;19.95;10.93;;;2.50;99.90;;;;;;2602960;54;20035;31
2022/01/08 10:22:20;;;;;;;21.92;12.48;;;2.50;99.90;;;;;;2621853;46;20022;31
2022/01/08 10:25:11;;;;;;;17.25;10.65;;;2.50;99.90;;;;;;2603657;54;20851;31
2022/01/08 10:27:46;;;;;;;16.13;10.18;;;2.50;99.90;;;;;;2603577;54;20030;31
2022/01/08 10:30:31;;;;;;;13.25;9.65;;;2.60;99.90;;;;;;2603937;54;20077;31
2022/01/08 10:33:11;;;;;;;14.05;9.63;;;2.60;99.90;;;;;;2621663;46;20023;31
2022/01/08 10:35:52;;;;;;;14.32;9.05;;;2.60;99.90;;;;;;2603479;54;20033;31
2022/01/08 10:38:28;;;;;;;19.70;11.00;;;2.70;99.90;;;;;;2622013;46;20030;31
2022/01/08 10:41:07;;;;;;;;;;;2.70;99.90;;;;;;2622162;46;20101;31
2022/01/08 10:43:44;;;;;;;14.65;8.73;;;2.70;99.90;;;;;;2602777;54;19934;31
2022/01/08 10:46:22;;;;;;;16.77;9.48;;;2.70;99.90;;;;;;2603794;54;20862;31
2022/01/08 10:48:59;;;;;;;14.35;10.07;;;2.70;99.90;;;;;;2603625;54;20085;31
2022/01/08 10:51:39;;;;;;;14.07;9.13;;;2.80;99.90;;;;;;2603615;54;20033;31
2022/01/08 10:54:14;;;;;;;13.05;8.70;;;2.70;99.90;;;;;;2603682;54;20845;31
2022/01/08 10:56:56;;;;;;;15.75;10.25;;;2.80;99.90;;;;;;2603884;54;20057;31
2022/01/08 10:59:32;;;;;;;18.50;10.40;;;2.80;99.90;;;;;;2622153;46;20026;31
2022/01/08 11:02:09;;;;;;;13.90;8.98;;;2.90;99.90;;;;;;2603314;54;20085;31
2022/01/08 11:04:52;;;;;;;12.53;8.83;;;3.00;99.90;;;;;;2603592;54;20044;31
2022/01/08 11:07:55;;;;;;;13.05;8.18;;;3.00;99.90;;;;;;2603460;54;20255;31
2022/01/08 11:10:32;;;;;;;12.63;8.33;;;2.90;99.90;;;;;;2603338;54;20927;31
2022/01/08 11:13:07;;;;;;;18.02;10.10;;;3.10;99.90;;;;;;2621999;46;20030;31
2022/01/08 11:15:51;;;;;;;13.82;9.80;;;3.10;99.90;;;;;;2603308;54;20867;31
2022/01/08 11:18:29;;;;;;;13.10;8.90;;;3.20;99.90;;;;;;2603498;54;19935;31
2022/01/08 11:21:02;;;;;;;15.30;8.68;;;3.30;99.90;;;;;;2603524;54;20089;31
2022/01/08 11:23:41;;;;;;;15.60;8.85;;;3.30;99.90;;;;;;2621389;46;20034;31
2022/01/08 11:26:16;;;;;;;12.38;7.82;;;3.40;99.90;;;;;;2603482;54;20030;31
2022/01/08 11:28:52;;;;;;;12.85;8.90;;;3.40;99.90;;;;;;2603575;54;20089;31
2022/01/08 11:31:29;;;;;;;12.10;8.73;;;3.40;99.90;;;;;;2603290;54;20022;31
2022/01/08 11:34:10;;;;;;;11.63;8.25;;;3.40;99.90;;;;;;2603443;54;20068;31
2022/01/08 11:39:43;;;;;;;12.55;7.70;;;3.50;99.90;;;;;;2603548;54;20045;31
2022/01/08 11:42:22;;;;;;;11.53;7.67;;;3.50;99.90;;;;;;2621328;46;20865;31
2022/01/08 11:44:58;;;;;;;11.13;8.17;;;3.50;99.90;;;;;;2603417;54;20317;31
2022/01/08 11:47:34;;;;;;;12.23;8.27;;;3.60;99.90;;;;;;2603356;54;20027;31
2022/01/08 11:52:43;;;;;;;11.23;7.30;;;3.70;99.90;;;;;;2603639;54;20031;31
2022/01/08 11:55:19;;;;;;;;;;;3.70;99.90;;;;;;2603639;54;20888;31
2022/01/08 12:00:56;;;;;;;11.00;7.57;;;3.80;99.90;;;;;;2603298;54;20033;31
2022/01/08 12:03:39;;;;;;;11.27;8.10;;;3.80;99.90;;;;;;2603603;54;20037;31
2022/01/08 12:06:33;;;;;;;18.45;10.70;;;3.80;99.90;;;;;;2621470;46;20034;31
2022/01/08 12:09:23;;;;;;;15.20;8.45;;;3.90;99.90;;;;;;2603450;54;20034;31
2022/01/08 12:12:05;;;;;;;12.95;8.40;;;3.90;99.90;;;;;;2603568;54;20077;31
2022/01/08 12:14:54;;;;;;;11.93;8.18;;;3.80;99.90;;;;;;2621680;46;20033;31
2022/01/08 12:17:29;;;;;;;11.82;8.63;;;3.90;99.90;;;;;;2603409;54;20037;31
2022/01/08 12:20:05;;;;;;;12.73;8.13;;;3.80;99.90;;;;;;2621977;46;20030;31
2022/01/08 12:22:43;;;;;;;14.73;8.35;;;3.80;99.90;;;;;;2603434;54;20089;31
2022/01/08 12:25:38;;;;;;;12.50;8.60;;;3.80;99.90;;;;;;2603107;54;20907;31
2022/01/08 12:28:33;;;;;;;12.23;8.40;;;3.80;99.90;;;;;;2603392;54;20062;31
2022/01/08 12:31:25;;;;;;;12.40;8.25;;;3.80;99.90;;;;;;2603256;54;20781;31
2022/01/08 12:34:27;;;;;;;13.27;9.48;;;3.70;99.90;;;;;;2603066;54;20023;31
2022/01/08 12:37:10;;;;;;;16.65;10.05;;;3.70;99.90;;;;;;2602886;54;20027;31
2022/01/08 12:39:55;;;;;;;14.60;8.60;;;3.70;99.90;;;;;;2621726;46;20023;31
2022/01/08 12:42:45;;;;;;;13.73;8.43;;;3.60;99.90;;;;;;2603169;54;20100;31
2022/01/08 12:45:34;;;;;;;12.55;8.38;;;3.60;99.90;;;;;;2603131;54;20798;31
2022/01/08 12:48:09;;;;;;;12.20;8.20;;;3.50;99.90;;;;;;2603432;54;20888;31
2022/01/08 12:50:56;;;;;;;13.88;8.80;;;3.50;99.90;;;;;;2603145;54;20030;31
2022/01/08 12:53:33;;;;;;;24.35;12.32;;;3.50;99.90;;;;;;2603257;54;20080;31
2022/01/08 12:56:22;;;;;;;26.30;14.00;;;3.40;99.90;;;;;;2603034;54;20732;31
2022/01/08 12:58:57;;;;;;;18.88;11.20;;;3.40;99.90;;;;;;2621913;46;20747;31
2022/01/08 13:01:49;;;;;;;19.10;9.80;;;3.40;99.90;;;;;;2621332;46;20805;31
2022/01/08 13:07:06;;;;;;;15.18;8.45;;;3.40;99.90;;;;;;2603205;54;20033;31
2022/01/08 13:09:42;;;;;;;17.52;10.90;;;3.40;99.90;;;;;;2603127;54;20049;31
2022/01/08 13:12:26;;;;;;;16.58;9.73;;;3.40;99.90;;;;;;2602925;54;20049;31
2022/01/08 13:15:06;;;;;;;13.00;7.65;;;3.40;99.90;;;;;;2603013;54;20026;31
2022/01/08 13:17:54;;;;;;;12.93;7.95;;;3.40;99.90;;;;;;2603306;54;20079;31
2022/01/08 13:20:33;;;;;;;14.48;9.13;;;3.40;99.90;;;;;;2621582;47;20859;31
2022/01/08 13:23:08;;;;;;;10.45;7.38;;;3.40;99.90;;;;;;2603026;54;20716;31
2022/01/08 13:25:53;;;;;;;12.13;7.68;;;3.30;99.90;;;;;;2621765;47;20046;31
2022/01/08 13:28:29;;;;;;;11.90;8.40;;;3.30;99.90;;;;;;2602151;54;20025;31
2022/01/08 13:31:07;;;;;;;12.93;7.63;;;3.30;99.90;;;;;;2603121;54;20054;31
2022/01/08 13:33:51;;;;;;;11.57;7.90;;;3.30;99.90;;;;;;2602979;54;20027;31
2022/01/08 13:36:26;;;;;;;13.93;8.75;;;3.30;99.90;;;;;;2602818;54;20046;31
2022/01/08 13:39:07;;;;;;;14.73;8.07;;;3.30;99.90;;;;;;2603073;54;20856;31
2022/01/08 13:41:42;;;;;;;15.25;8.55;;;3.30;99.90;;;;;;2602999;54;20026;31
2022/01/08 13:44:20;;;;;;;13.50;7.38;;;3.30;99.90;;;;;;2602982;54;20047;31
2022/01/08 13:46:54;;;;;;;15.63;8.10;;;3.30;99.90;;;;;;2602894;54;20040;31
2022/01/08 13:49:32;;;;;;;13.65;7.85;;;3.30;99.90;;;;;;2602765;54;20901;31
2022/01/08 13:52:16;;;;;;;12.88;8.32;;;3.20;99.90;;;;;;2621450;47;20050;31
2022/01/08 13:54:53;;;;;;;13.53;8.10;;;3.20;99.90;;;;;;2603116;54;20774;31
2022/01/08 13:57:28;;;;;;;16.40;10.45;;;3.30;99.90;;;;;;2603540;54;20246;31
2022/01/08 14:00:21;;;;;;;18.37;10.70;;;3.30;99.90;;;;;;2622211;46;20038;31
2022/01/08 14:02:59;;;;;;;16.52;10.75;;;3.30;99.90;;;;;;2621970;46;20026;31
2022/01/08 14:05:37;;;;;;;17.97;11.33;;;3.20;99.90;;;;;;2603669;54;20023;31
2022/01/08 14:08:18;;;;;;;20.27;10.40;;;3.20;99.90;;;;;;2603802;54;20022;31
2022/01/08 14:11:02;;;;;;;16.67;10.73;;;3.20;99.90;;;;;;2603855;54;20053;31
2022/01/08 14:13:55;;;;;;;16.73;11.33;;;3.10;99.90;;;;;;2621749;46;20919;31
2022/01/08 14:16:33;;;;;;;20.35;10.98;;;3.00;99.90;;;;;;2603898;54;20254;31
2022/01/08 14:19:21;;;;;;;20.90;11.13;;;2.90;99.90;;;;;;2603764;54;20832;31
2022/01/08 14:22:03;;;;;;;17.75;11.50;;;2.90;99.90;;;;;;2603741;54;20809;31
2022/01/08 14:24:39;;;;;;;19.10;11.68;;;2.80;99.90;;;;;;2603617;54;20877;31
2022/01/08 14:27:16;;;;;;;23.70;12.02;;;2.80;99.90;;;;;;2621869;46;20793;31
2022/01/08 14:30:10;;;;;;;22.60;11.77;;;2.70;99.90;;;;;;2603570;54;20045;31
2022/01/08 14:32:44;;;;;;;18.23;11.25;;;2.70;99.90;;;;;;2603684;54;20053;31
2022/01/08 14:35:33;;;;;;;21.00;11.98;;;2.60;99.90;;;;;;2603604;54;20026;31
2022/01/08 14:38:09;;;;;;;20.25;12.25;;;2.60;99.90;;;;;;2603786;54;20026;31
2022/01/08 14:40:56;;;;;;;22.80;13.27;;;2.50;99.90;;;;;;2603606;54;20101;31
2022/01/08 14:43:35;;;;;;;25.83;13.50;;;2.50;99.90;;;;;;2622358;46;20030;31
2022/01/08 14:46:18;;;;;;;23.40;13.50;;;2.50;99.90;;;;;;2603475;54;20838;31
2022/01/08 14:49:04;;;;;;;26.95;15.38;;;2.40;99.90;;;;;;2603569;54;20026;31
2022/01/08 14:51:39;;;;;;;25.38;15.27;;;2.40;99.90;;;;;;2622034;46;20077;31
2022/01/08 14:54:17;;;;;;;25.05;14.82;;;2.30;99.90;;;;;;2603627;54;20037;31
2022/01/08 14:57:06;;;;;;;27.85;15.32;;;2.30;99.90;;;;;;2603526;54;20019;31
2022/01/08 14:59:47;;;;;;;23.30;15.03;;;2.20;99.90;;;;;;2622051;46;20037;31
2022/01/08 15:02:22;;;;;;;27.42;14.80;;;2.20;99.90;;;;;;2612577;46;20413;31
2022/01/08 15:05:02;;;;;;;26.80;16.42;;;2.10;99.90;;;;;;2603345;54;20026;31
2022/01/08 15:07:41;;;;;;;27.92;16.70;;;2.10;99.90;;;;;;2603053;54;20931;31
2022/01/08 15:10:15;;;;;;;29.45;17.23;;;2.10;99.90;;;;;;2603487;54;20104;31
2022/01/08 15:12:54;;;;;;;28.55;15.57;;;2.00;99.90;;;;;;2602763;54;20770;31
2022/01/08 15:15:29;;;;;;;28.60;16.35;;;2.00;99.90;;;;;;2621850;46;20911;31
2022/01/08 15:18:03;;;;;;;24.60;15.80;;;2.00;99.90;;;;;;2603334;54;20816;31
2022/01/08 15:20:38;;;;;;;27.95;16.35;;;2.00;99.90;;;;;;2603698;54;20897;31
2022/01/08 15:23:12;;;;;;;28.05;16.40;;;2.00;99.90;;;;;;2621787;46;20138;31
2022/01/08 15:25:46;;;;;;;30.40;15.52;;;2.00;99.90;;;;;;2603518;54;20085;31
2022/01/08 15:28:29;;;;;;;25.83;16.23;;;2.00;99.90;;;;;;2603327;54;20865;31
2022/01/08 15:31:04;;;;;;;26.58;15.77;;;1.90;99.90;;;;;;2603407;54;20042;31
2022/01/08 15:33:38;;;;;;;28.50;14.77;;;1.90;99.90;;;;;;2603585;54;20029;31
2022/01/08 15:36:12;;;;;;;26.23;15.65;;;1.90;99.90;;;;;;2621858;46;20026;31
2022/01/08 15:38:47;;;;;;;27.47;15.43;;;1.90;99.90;;;;;;2603392;54;20034;31
2022/01/08 15:41:22;;;;;;;23.70;15.50;;;1.90;99.90;;;;;;2603593;54;20027;31
2022/01/08 15:44:03;;;;;;;30.40;15.90;;;1.90;99.90;;;;;;2603283;54;20026;31
2022/01/08 15:46:38;;;;;;;25.52;16.20;;;1.80;99.90;;;;;;2603374;54;20030;31